Time;durP1;ratioP1;P1;durP2;ratioP2;P2;SDS_P1;SDS_P2;PMS_P1;PMS_P2;Temp;Humidity;BMP_temperature;BMP_pressure;BME280_temperature;BME280_humidity;BME280_pressure;Samples;Min_cycle;Max_cycle;Signal;HPM_P1;HPM_P2
2023/10/03 00:02:16;;;;;;;;;;;;;;;14.34;77.95;100303.25;5094393;28;20056;-68
2023/10/03 00:04:44;;;;;;;;;;;;;;;14.33;77.92;100307.53;5094680;28;19920;-67
2023/10/03 00:07:15;;;;;;;1.05;0.88;;;;;;;14.33;78.19;100297.28;5092917;28;19920;-68
2023/10/03 00:09:44;;;;;;;0.95;0.90;;;;;;;14.38;78.43;100299.81;5093949;28;20052;-68
2023/10/03 00:12:13;;;;;;;0.40;0.40;;;;;;;14.35;78.39;100300.69;5093888;28;20047;-66
2023/10/03 00:14:42;;;;;;;0.60;0.50;;;;;;;14.28;77.94;100298.97;5093813;28;20036;-68
2023/10/03 00:17:11;;;;;;;1.88;1.77;;;;;;;14.27;78.69;100297.28;5093968;28;20090;-68
2023/10/03 00:19:41;;;;;;;0.52;0.52;;;;;;;14.20;78.67;100299.91;5092556;28;20389;-68
2023/10/03 00:22:10;;;;;;;0.60;0.60;;;;;;;14.16;78.76;100296.47;5093720;28;20636;-68
2023/10/03 00:24:40;;;;;;;0.52;0.52;;;;;;;14.15;78.75;100286.22;5093683;28;20854;-68
2023/10/03 00:27:09;;;;;;;5.57;1.55;;;;;;;14.17;78.56;100290.50;5093682;28;20048;-68
2023/10/03 00:29:40;;;;;;;2.22;1.15;;;;;;;14.19;78.90;100288.75;5092748;28;20044;-68
2023/10/03 00:32:10;;;;;;;4.35;1.00;;;;;;;14.21;78.42;100281.91;5093652;28;20058;-68
2023/10/03 00:34:41;;;;;;;1.13;1.02;;;;;;;14.15;78.66;100279.38;5093613;28;20051;-68
2023/10/03 00:37:11;;;;;;;0.90;0.90;;;;;;;14.10;78.51;100281.13;5093364;28;20052;-68
2023/10/03 00:39:41;;;;;;;0.50;0.50;;;;;;;14.00;78.87;100276.88;5093153;28;20139;-68
2023/10/03 00:42:11;;;;;;;2.58;1.30;;;;;;;14.08;78.56;100275.16;5092952;28;20052;-67
2023/10/03 00:44:40;;;;;;;;;;;;;;;13.97;79.07;100266.63;5094181;28;20130;-68
2023/10/03 00:47:10;;;;;;;1.05;1.00;;;;;;;13.91;78.95;100267.53;5097602;28;19963;-67
2023/10/03 00:49:40;;;;;;;0.52;0.52;;;;;;;13.91;79.01;100262.41;5097512;28;20049;-67
2023/10/03 00:52:12;;;;;;;3.72;1.15;;;;;;;13.93;78.87;100264.94;5097612;28;20047;-68
2023/10/03 00:54:42;;;;;;;0.40;0.40;;;;;;;13.92;79.43;100258.09;5097619;28;20101;-69
2023/10/03 00:57:12;;;;;;;1.05;0.95;;;;;;;13.91;79.13;100261.53;5097586;28;20101;-67
2023/10/03 00:59:40;;;;;;;0.87;0.87;;;;;;;13.87;79.27;100259.84;5096092;28;20044;-67
2023/10/03 01:02:10;;;;;;;1.17;1.08;;;;;;;13.87;79.55;100259.84;5097469;28;20283;-66
2023/10/03 01:04:40;;;;;;;1.50;1.15;;;;;;;13.92;79.56;100258.09;5097448;28;20070;-66
2023/10/03 01:07:11;;;;;;;1.65;1.55;;;;;;;13.97;79.35;100261.50;5097635;28;20056;-68
2023/10/03 01:09:42;;;;;;;4.68;1.45;;;;;;;13.92;79.02;100268.38;5097228;28;20097;-68
2023/10/03 01:12:11;;;;;;;0.88;0.88;;;;;;;13.91;79.34;100261.53;5096059;28;20048;-67
2023/10/03 01:14:42;;;;;;;0.73;0.70;;;;;;;13.85;79.24;100261.56;5097455;28;20486;-68
2023/10/03 01:17:13;;;;;;;1.42;1.33;;;;;;;13.83;78.84;100256.44;5097930;28;20044;-68
2023/10/03 01:19:43;;;;;;;0.95;0.77;;;;;;;13.79;79.36;100256.47;5096011;28;20059;-68
2023/10/03 01:22:13;;;;;;;1.15;1.00;;;;;;;13.77;79.08;100258.19;5097278;28;20206;-68
2023/10/03 01:24:44;;;;;;;0.60;0.60;;;;;;;13.78;79.49;100254.75;5097301;28;20047;-66
2023/10/03 01:27:13;;;;;;;0.80;0.70;;;;;;;13.83;79.31;100264.13;5097267;28;20144;-68
2023/10/03 01:29:42;;;;;;;0.60;0.60;;;;;;;13.79;79.36;100256.47;5097187;28;20384;-67
2023/10/03 01:32:11;;;;;;;0.68;0.68;;;;;;;13.84;79.04;100254.75;5095657;28;20036;-68
2023/10/03 01:34:40;;;;;;;1.10;1.00;;;;;;;13.78;78.93;100247.06;5096705;28;20036;-66
2023/10/03 01:37:09;;;;;;;0.70;0.60;;;;;;;13.81;79.12;100250.47;5095848;28;20285;-68
2023/10/03 01:39:38;;;;;;;0.90;0.83;;;;;;;13.73;79.30;100243.66;5095099;28;20050;-68
2023/10/03 01:42:09;;;;;;;0.53;0.53;;;;;;;13.71;78.96;100247.94;5096886;28;20078;-68
2023/10/03 01:44:38;;;;;;;3.92;1.00;;;;;;;13.75;79.33;100234.25;5095458;28;20312;-67
2023/10/03 01:47:07;;;;;;;0.40;0.40;;;;;;;13.68;79.25;100232.56;5095613;28;20052;-68
2023/10/03 01:49:38;;;;;;;1.20;0.93;;;;;;;13.70;79.58;100236.00;5096765;28;20040;-68
2023/10/03 01:52:07;;;;;;;0.73;0.73;;;;;;;13.70;79.60;100239.38;5095265;28;20152;-67
2023/10/03 01:54:38;;;;;;;7.82;1.92;;;;;;;13.62;79.44;100227.47;5096461;28;20114;-69
2023/10/03 01:57:10;;;;;;;0.60;0.60;;;;;;;13.54;79.31;100234.31;5095990;28;20142;-67
2023/10/03 01:59:41;;;;;;;3.92;1.35;;;;;;;13.52;79.71;100220.66;5095087;28;20100;-67
2023/10/03 02:02:10;;;;;;;0.47;0.47;;;;;;;13.59;79.93;100222.34;5095354;28;20055;-68
2023/10/03 02:04:39;;;;;;;;;;;;;;;13.60;80.01;100226.63;5095495;28;20044;-69
2023/10/03 02:07:08;;;;;;;0.70;0.70;;;;;;;13.58;79.68;100220.66;5096172;28;19920;-67
2023/10/03 02:09:37;;;;;;;0.80;0.80;;;;;;;13.52;79.72;100211.25;5095337;28;20044;-69
2023/10/03 02:12:10;;;;;;;0.63;0.63;;;;;;;13.56;79.92;100214.66;5095094;28;20083;-68
2023/10/03 02:14:41;;;;;;;0.77;0.77;;;;;;;13.59;79.94;100206.94;5095186;28;20369;-66
2023/10/03 02:17:10;;;;;;;0.80;0.80;;;;;;;13.65;79.88;100212.06;5095231;28;20046;-68
2023/10/03 02:19:40;;;;;;;1.13;1.05;;;;;;;13.62;79.48;100207.81;5095062;28;20074;-68
2023/10/03 02:22:11;;;;;;;0.40;0.40;;;;;;;13.57;79.55;100208.69;5095780;28;20513;-68
2023/10/03 02:24:41;;;;;;;0.98;0.70;;;;;;;13.61;79.56;100205.22;5095805;28;20492;-69
2023/10/03 02:27:11;;;;;;;0.52;0.52;;;;;;;13.54;79.54;100212.09;5095784;28;20048;-69
2023/10/03 02:29:41;;;;;;;1.52;1.42;;;;;;;13.53;79.91;100207.00;5095358;28;20048;-66
2023/10/03 02:32:11;;;;;;;6.72;1.23;;;;;;;13.57;79.54;100212.09;5095661;28;20058;-67
2023/10/03 02:34:41;;;;;;;1.10;1.02;;;;;;;13.54;79.37;100204.41;5095937;28;20044;-67
2023/10/03 02:37:10;;;;;;;0.85;0.85;;;;;;;13.44;79.33;100205.31;5095859;28;20446;-68
2023/10/03 02:39:43;;;;;;;0.47;0.47;;;;;;;13.39;79.82;100200.19;5095292;28;20062;-68
2023/10/03 02:42:12;;;;;;;0.63;0.63;;;;;;;13.36;80.08;100202.75;5094268;28;20063;-68
2023/10/03 02:44:43;;;;;;;1.10;0.60;;;;;;;13.41;79.92;100203.59;5094249;28;20040;-67
2023/10/03 02:47:12;;;;;;;1.95;0.70;;;;;;;13.38;79.95;100195.94;5094209;28;20063;-67
2023/10/03 02:49:42;;;;;;;1.20;0.90;;;;;;;13.33;80.15;100194.25;5094463;28;20043;-68
2023/10/03 02:52:11;;;;;;;;;;;;;;;13.41;79.77;100203.59;5094501;28;20048;-68
2023/10/03 02:54:40;;;;;;;0.75;0.75;;;;;;;13.37;79.71;100196.78;5093946;28;20357;-67
2023/10/03 02:57:09;;;;;;;0.70;0.70;;;;;;;13.34;79.75;100191.66;5095304;28;20043;-67
2023/10/03 02:59:38;;;;;;;0.50;0.50;;;;;;;13.36;80.11;100194.25;5093891;28;20044;-68
2023/10/03 03:02:10;;;;;;;1.45;1.35;;;;;;;13.33;79.56;100195.09;5095368;28;20289;-67
2023/10/03 03:04:41;;;;;;;0.60;0.60;;;;;;;13.31;79.59;100201.94;5095079;28;20079;-67
2023/10/03 03:07:10;;;;;;;4.47;1.13;;;;;;;13.36;79.81;100199.38;5095287;28;20064;-67
2023/10/03 03:09:40;;;;;;;0.60;0.60;;;;;;;13.32;79.91;100195.94;5093840;28;20081;-69
2023/10/03 03:12:09;;;;;;;0.50;0.50;;;;;;;13.27;79.71;100192.53;5094193;28;20124;-68
2023/10/03 03:14:38;;;;;;;0.73;0.60;;;;;;;13.29;79.84;100195.94;5094760;28;20040;-67
2023/10/03 03:17:13;;;;;;;1.37;1.27;;;;;;;13.25;80.14;100186.56;5095088;28;20419;-67
2023/10/03 03:19:45;;;;;;;1.40;1.30;;;;;;;13.25;79.96;100185.72;5094757;28;20069;-67
2023/10/03 03:22:16;;;;;;;1.05;0.95;;;;;;;13.26;79.76;100185.72;5094726;28;20043;-66
2023/10/03 03:24:51;;;;;;;0.90;0.80;;;;;;;13.19;80.17;100181.47;5094884;28;20048;-68
2023/10/03 03:27:26;;;;;;;0.60;0.60;;;;;;;13.13;80.44;100181.50;5094751;28;20127;-67
2023/10/03 03:30:22;;;;;;;0.40;0.40;;;;;;;13.20;80.17;100177.19;5094612;28;20036;-68
2023/10/03 03:32:51;;;;;;;0.85;0.85;;;;;;;13.19;80.18;100181.47;5094912;28;20053;-68
2023/10/03 03:35:24;;;;;;;0.95;0.85;;;;;;;13.14;80.17;100178.09;5094426;28;20048;-69
2023/10/03 03:37:56;;;;;;;0.88;0.85;;;;;;;13.18;80.54;100174.63;5094729;28;20166;-68
2023/10/03 03:40:32;;;;;;;9.27;1.75;;;;;;;13.11;80.39;100172.97;5094155;28;20131;-68
2023/10/03 03:43:04;;;;;;;3.53;2.25;;;;;;;13.01;80.44;100160.13;5093464;28;20135;-68
2023/10/03 03:45:33;;;;;;;0.80;0.80;;;;;;;13.04;80.51;100162.69;5094520;28;20403;-67
2023/10/03 03:48:02;;;;;;;1.13;1.03;;;;;;;13.04;80.89;100163.56;5094183;28;20047;-68
2023/10/03 03:50:33;;;;;;;0.85;0.60;;;;;;;13.11;80.78;100162.72;5094152;28;20055;-67
2023/10/03 03:53:04;;;;;;;0.50;0.50;;;;;;;13.13;80.47;100158.41;5094525;28;20123;-68
2023/10/03 03:55:34;;;;;;;1.63;1.15;;;;;;;13.19;80.55;100163.53;5094367;28;20055;-68
2023/10/03 03:58:07;;;;;;;1.90;1.17;;;;;;;13.15;80.51;100164.38;5094117;28;20131;-68
2023/10/03 04:00:38;;;;;;;0.95;0.90;;;;;;;13.04;80.25;100160.13;5094287;28;20040;-68
2023/10/03 04:03:12;;;;;;;0.80;0.80;;;;;;;12.98;80.48;100160.16;5094324;28;20151;-69
2023/10/03 04:05:43;;;;;;;1.98;1.38;;;;;;;12.94;80.38;100154.19;5093865;28;20062;-68
2023/10/03 04:08:12;;;;;;;7.97;1.33;;;;;;;12.92;80.84;100148.22;5093939;28;20048;-68
2023/10/03 04:10:44;;;;;;;0.98;0.82;;;;;;;12.89;80.67;100145.66;5093809;28;20044;-68
2023/10/03 04:13:16;;;;;;;1.75;1.23;;;;;;;12.90;80.98;100139.69;5093862;28;20051;-68
2023/10/03 04:15:45;;;;;;;0.55;0.55;;;;;;;12.90;80.94;100139.69;5093735;28;20058;-67
2023/10/03 04:18:15;;;;;;;0.63;0.63;;;;;;;12.88;80.92;100141.41;5093758;28;20097;-67
2023/10/03 04:20:47;;;;;;;1.33;1.00;;;;;;;12.88;81.20;100154.22;5093349;28;20093;-67
2023/10/03 04:23:16;;;;;;;0.68;0.68;;;;;;;12.86;81.24;100145.66;5093769;28;20052;-68
2023/10/03 04:25:45;;;;;;;4.37;2.20;;;;;;;12.91;81.22;100148.22;5093751;28;20042;-68
2023/10/03 04:28:17;;;;;;;1.33;1.23;;;;;;;12.85;81.34;100143.97;5093518;28;20047;-69
2023/10/03 04:30:48;;;;;;;2.33;0.98;;;;;;;12.82;81.18;100143.97;5093950;28;20066;-69
2023/10/03 04:33:20;;;;;;;1.15;0.98;;;;;;;12.94;81.45;100143.94;5093609;28;20049;-69
2023/10/03 04:35:52;;;;;;;2.47;1.02;;;;;;;12.93;81.13;100142.25;5093818;28;20399;-68
2023/10/03 04:38:21;;;;;;;0.77;0.77;;;;;;;12.83;81.21;100140.56;5093856;28;20090;-68
2023/10/03 04:40:50;;;;;;;0.80;0.77;;;;;;;12.86;81.06;100143.09;5053249;28;20041;-68
2023/10/03 04:43:22;;;;;;;1.20;1.05;;;;;;;12.82;81.40;100145.66;5054187;28;20203;-68
2023/10/03 04:45:51;;;;;;;2.20;1.85;;;;;;;12.80;81.52;100145.69;5053618;28;20045;-68
2023/10/03 04:48:22;;;;;;;0.90;0.90;;;;;;;12.74;81.49;100150.84;5053315;28;20053;-68
2023/10/03 04:50:53;;;;;;;1.13;1.05;;;;;;;12.73;81.44;100149.97;5053322;28;20064;-67
2023/10/03 04:53:23;;;;;;;1.40;1.10;;;;;;;12.73;81.62;100141.44;5052268;28;20095;-68
2023/10/03 04:55:52;;;;;;;0.93;0.93;;;;;;;12.76;81.79;100147.38;5053232;28;20057;-68
2023/10/03 04:58:21;;;;;;;1.17;0.83;;;;;;;12.85;81.49;100143.97;5052185;28;20045;-68
2023/10/03 05:00:51;;;;;;;2.13;1.27;;;;;;;12.84;81.61;100139.69;5052160;28;20045;-68
2023/10/03 05:03:22;;;;;;;0.40;0.40;;;;;;;12.85;81.43;100133.72;5053378;28;20045;-68
2023/10/03 05:05:52;;;;;;;0.80;0.80;;;;;;;12.90;81.23;100141.38;5053013;28;20055;-69
2023/10/03 05:08:22;;;;;;;0.50;0.50;;;;;;;12.91;81.48;100133.69;5052847;28;20048;-68
2023/10/03 05:10:54;;;;;;;0.65;0.65;;;;;;;12.96;81.53;100136.22;5053012;28;20111;-68
2023/10/03 05:13:24;;;;;;;1.17;1.00;;;;;;;12.96;81.02;100126.84;5053331;28;20053;-69
2023/10/03 05:15:53;;;;;;;1.35;1.15;;;;;;;12.94;81.33;100126.00;5053094;28;20040;-67
2023/10/03 05:18:23;;;;;;;1.13;1.02;;;;;;;12.95;81.63;100135.41;5053263;28;20556;-68
2023/10/03 05:20:58;;;;;;;1.05;1.00;;;;;;;13.00;81.20;100138.81;5053032;28;20377;-68
2023/10/03 05:23:28;;;;;;;0.93;0.90;;;;;;;12.99;81.28;100139.66;5053207;28;20080;-67
2023/10/03 05:25:57;;;;;;;1.15;0.98;;;;;;;12.96;81.27;100139.66;5052861;28;20136;-68
2023/10/03 05:28:25;;;;;;;1.23;1.13;;;;;;;12.93;81.51;100144.81;5052882;28;20037;-68
2023/10/03 05:30:58;;;;;;;1.37;1.27;;;;;;;13.01;81.55;100142.19;5052783;28;20377;-68
2023/10/03 05:33:27;;;;;;;1.13;0.70;;;;;;;13.10;81.75;100145.59;5055462;28;20049;-69
2023/10/03 05:35:57;;;;;;;1.48;1.20;;;;;;;13.16;81.58;100148.16;5056720;28;20044;-68
2023/10/03 05:38:26;;;;;;;1.35;1.25;;;;;;;13.16;81.78;100150.72;5057420;28;20079;-68
2023/10/03 05:40:56;;;;;;;1.53;1.40;;;;;;;13.16;81.68;100153.28;5096752;28;20044;-69
2023/10/03 05:43:26;;;;;;;2.05;1.42;;;;;;;13.28;81.92;100153.25;5096715;28;20048;-70
2023/10/03 05:45:55;;;;;;;1.05;0.98;;;;;;;13.36;81.46;100148.91;5096538;28;20513;-69
2023/10/03 05:48:25;;;;;;;;;;;;;;;13.38;81.42;100152.34;5105707;28;20499;-68
2023/10/03 05:50:55;;;;;;;0.60;0.60;;;;;;;13.36;81.40;100148.91;5116378;28;20294;-69
2023/10/03 05:53:25;;;;;;;0.65;0.65;;;;;;;13.47;81.59;100145.47;5117380;28;20429;-68
2023/10/03 05:55:54;;;;;;;1.05;0.95;;;;;;;13.62;81.53;100153.09;5116136;28;20059;-69
2023/10/03 05:58:23;;;;;;;0.55;0.55;;;;;;;13.67;81.60;100159.03;5112848;28;20046;-69
2023/10/03 06:00:52;;;;;;;0.60;0.60;;;;;;;13.72;81.46;100157.31;5115831;28;20104;-69
2023/10/03 06:03:21;;;;;;;4.32;0.90;;;;;;;13.84;81.35;100165.78;5116587;28;20096;-68
2023/10/03 06:05:50;;;;;;;1.10;1.00;;;;;;;13.96;81.53;100163.13;5116854;28;20044;-68
2023/10/03 06:08:19;;;;;;;1.27;1.17;;;;;;;14.11;81.61;100167.28;5115512;28;20035;-69
2023/10/03 06:10:50;;;;;;;0.85;0.85;;;;;;;14.27;81.10;100174.03;5116372;28;20272;-68
2023/10/03 06:13:19;;;;;;;2.60;1.45;;;;;;;14.45;80.76;100162.78;5114462;28;20053;-69
2023/10/03 06:15:48;;;;;;;1.17;0.73;;;;;;;14.57;80.80;100166.09;5115457;28;20039;-68
2023/10/03 06:18:18;;;;;;;0.93;0.93;;;;;;;14.67;80.46;100172.84;5116360;28;20070;-68
2023/10/03 06:20:49;;;;;;;1.17;0.90;;;;;;;14.77;80.71;100166.78;5116206;28;20059;-67
2023/10/03 06:23:19;;;;;;;6.10;2.08;;;;;;;14.90;80.38;100159.75;5114427;27;20044;-68
2023/10/03 06:25:51;;;;;;;1.77;1.47;;;;;;;15.01;80.32;100164.81;5115193;28;20035;-69
2023/10/03 06:28:21;;;;;;;2.85;1.52;;;;;;;15.10;80.00;100159.56;5116377;28;20048;-67
2023/10/03 06:30:52;;;;;;;2.38;1.02;;;;;;;15.11;79.97;100156.13;5116624;28;20047;-67
2023/10/03 06:33:21;;;;;;;0.68;0.68;;;;;;;15.20;79.99;100156.00;5114844;28;20566;-68
2023/10/03 06:35:51;;;;;;;0.95;0.70;;;;;;;15.23;80.23;100155.97;5116066;28;20122;-67
2023/10/03 06:38:22;;;;;;;0.88;0.85;;;;;;;15.30;79.84;100149.91;5116163;28;20498;-68
2023/10/03 06:40:53;;;;;;;0.70;0.70;;;;;;;15.35;80.20;100160.97;5115913;28;20064;-66
2023/10/03 06:43:21;;;;;;;1.15;1.02;;;;;;;15.50;80.12;100165.13;5113854;28;20052;-68
2023/10/03 06:45:50;;;;;;;9.50;6.90;;;;;;;15.67;80.32;100152.88;5109781;28;20127;-69
2023/10/03 06:48:21;;;;;;;3.67;2.90;;;;;;;15.84;79.58;100159.47;5113800;28;20067;-69
2023/10/03 06:50:50;;;;;;;0.70;0.70;;;;;;;15.98;79.44;100159.28;5113083;28;20299;-67
2023/10/03 06:53:19;;;;;;;1.25;1.15;;;;;;;16.09;79.19;100154.81;5115693;28;20043;-66
2023/10/03 06:55:50;;;;;;;1.33;0.82;;;;;;;16.11;78.65;100155.63;5114554;28;20101;-67
2023/10/03 06:58:20;;;;;;;1.25;1.15;;;;;;;16.19;78.41;100152.94;5110676;28;20542;-66
2023/10/03 07:00:53;;;;;;;1.88;1.08;;;;;;;16.27;78.27;100145.97;5097248;28;20044;-67
2023/10/03 07:03:22;;;;;;;0.60;0.60;;;;;;;16.32;78.05;100144.13;5114138;28;20043;-66
2023/10/03 07:05:51;;;;;;;0.43;0.43;;;;;;;16.42;77.52;100150.84;5115288;28;20038;-66
2023/10/03 07:08:20;;;;;;;1.92;1.52;;;;;;;16.52;77.76;100152.41;5115421;28;20043;-66
2023/10/03 07:10:50;;;;;;;1.65;1.10;;;;;;;16.62;77.33;100159.97;5115545;28;20402;-67
2023/10/03 07:13:20;;;;;;;0.55;0.55;;;;;;;16.77;77.21;100149.38;5114508;28;20047;-67
2023/10/03 07:15:53;;;;;;;0.88;0.85;;;;;;;16.88;76.87;100150.91;5114572;28;20039;-67
2023/10/03 07:18:23;;;;;;;0.63;0.63;;;;;;;16.92;76.47;100143.06;5115013;28;20043;-68
2023/10/03 07:20:55;;;;;;;0.73;0.73;;;;;;;17.03;76.36;100138.59;5114510;27;20555;-67
2023/10/03 07:23:25;;;;;;;1.73;1.63;;;;;;;17.17;75.77;100133.13;5115251;28;20503;-68
2023/10/03 07:25:54;;;;;;;1.38;1.20;;;;;;;17.29;75.67;100133.75;5113594;28;20093;-68
2023/10/03 07:28:24;;;;;;;1.03;0.97;;;;;;;17.39;75.48;100132.69;5114014;28;20109;-66
2023/10/03 07:30:53;;;;;;;1.80;1.60;;;;;;;17.50;75.36;100137.59;5115411;28;20040;-68
2023/10/03 07:33:22;;;;;;;0.90;0.90;;;;;;;17.62;75.10;100126.19;5115060;28;20394;-66
2023/10/03 07:35:51;;;;;;;;;;;;;;;17.74;74.64;100131.06;5113189;28;20771;-66
2023/10/03 07:38:20;;;;;;;2.88;1.02;;;;;;;17.77;74.18;100131.00;5114772;28;19926;-66
2023/10/03 07:40:49;;;;;;;0.80;0.80;;;;;;;17.82;73.83;100134.34;5114876;28;20028;-66
2023/10/03 07:43:18;;;;;;;1.40;1.30;;;;;;;17.95;73.80;100133.16;5113253;28;20043;-66
2023/10/03 07:45:50;;;;;;;3.83;0.80;;;;;;;18.13;73.62;100134.47;5113452;28;20296;-65
2023/10/03 07:48:21;;;;;;;1.33;1.23;;;;;;;18.24;73.42;100127.28;5114911;27;20052;-66
2023/10/03 07:50:51;;;;;;;1.17;1.08;;;;;;;18.39;72.92;100132.94;5114438;28;20054;-66
2023/10/03 07:53:19;;;;;;;1.10;0.95;;;;;;;18.52;72.53;100134.34;5114813;28;20069;-66
2023/10/03 07:55:48;;;;;;;2.65;2.03;;;;;;;18.65;71.89;100140.91;5112615;28;20069;-66
2023/10/03 07:58:20;;;;;;;0.97;0.60;;;;;;;18.78;71.41;100135.41;5114776;28;20043;-66
2023/10/03 08:00:50;;;;;;;1.55;0.90;;;;;;;18.89;71.02;100117.84;5114356;28;20506;-64
2023/10/03 08:03:19;;;;;;;0.95;0.80;;;;;;;18.98;70.54;100122.78;5113274;28;20479;-64
2023/10/03 08:05:53;;;;;;;0.60;0.60;;;;;;;19.07;70.52;100117.34;5113317;28;20090;-65
2023/10/03 08:08:22;;;;;;;0.80;0.80;;;;;;;19.20;70.23;100113.50;5114300;28;20086;-64
2023/10/03 08:10:51;;;;;;;3.30;1.55;;;;;;;19.33;69.83;100122.63;5113006;28;20050;-64
2023/10/03 08:13:23;;;;;;;2.00;1.77;;;;;;;19.47;69.49;100123.09;5111735;28;20051;-63
2023/10/03 08:15:53;;;;;;;1.15;1.05;;;;;;;19.65;69.77;100117.34;5113111;28;20051;-63
2023/10/03 08:18:22;;;;;;;1.52;1.42;;;;;;;19.82;69.45;100125.47;5112937;28;20101;-63
2023/10/03 08:20:53;;;;;;;2.17;1.53;;;;;;;19.95;68.75;100121.59;5111802;28;20044;-63
2023/10/03 08:23:23;;;;;;;2.55;2.15;;;;;;;20.06;68.33;100114.31;5113305;28;20650;-63
2023/10/03 08:25:52;;;;;;;1.63;1.53;;;;;;;20.15;67.69;100113.19;5105306;28;20487;-63
2023/10/03 08:28:21;;;;;;;0.88;0.85;;;;;;;20.27;67.09;100119.75;5114305;28;20626;-63
2023/10/03 08:30:50;;;;;;;0.80;0.80;;;;;;;20.44;66.55;100105.28;5113985;28;20047;-63
2023/10/03 08:33:21;;;;;;;0.70;0.70;;;;;;;20.60;65.73;100106.47;5114085;28;20108;-64
2023/10/03 08:35:52;;;;;;;0.77;0.77;;;;;;;20.76;64.98;100092.94;5112827;28;20154;-65
2023/10/03 08:38:21;;;;;;;5.25;0.70;;;;;;;20.85;64.86;100092.66;5114796;28;20075;-63
2023/10/03 08:40:51;;;;;;;1.85;1.20;;;;;;;20.97;64.37;100089.59;5113939;28;20039;-63
2023/10/03 08:43:25;;;;;;;0.80;0.80;;;;;;;21.09;64.16;100095.19;5113712;28;20048;-64
2023/10/03 08:45:58;;;;;;;0.75;0.75;;;;;;;21.15;63.56;100095.00;5112936;28;20466;-63
2023/10/03 08:48:32;;;;;;;1.13;1.02;;;;;;;21.24;63.73;100098.97;5113797;28;20051;-63
2023/10/03 08:51:04;;;;;;;1.20;1.08;;;;;;;21.40;63.93;100094.06;5111928;28;20064;-63
2023/10/03 08:53:34;;;;;;;1.00;0.88;;;;;;;21.61;63.06;100093.25;5114288;28;20075;-63
2023/10/03 08:56:03;;;;;;;;;;;;;;;21.79;61.94;100077.75;5113088;28;20048;-62
2023/10/03 08:58:32;;;;;;;;;;;;;;;21.95;61.66;100083.22;5114113;28;19924;-63
2023/10/03 09:01:02;;;;;;;0.40;0.40;;;;;;;22.09;61.05;100091.31;5114015;28;19920;-66
2023/10/03 09:03:46;;;;;;;2.90;1.05;;;;;;;22.15;60.36;100080.63;5113943;28;20395;-62
2023/10/03 09:06:23;;;;;;;1.00;0.88;;;;;;;22.26;60.42;100075.00;5111652;28;20044;-63
2023/10/03 09:09:07;;;;;;;3.45;1.80;;;;;;;22.23;60.19;100083.78;5117981;28;20043;-63
2023/10/03 09:11:38;;;;;;;1.20;1.10;;;;;;;22.19;59.18;100089.16;5118045;28;20043;-63
2023/10/03 09:14:08;;;;;;;1.25;1.10;;;;;;;22.24;59.25;100080.28;5117531;28;20525;-63
2023/10/03 09:16:39;;;;;;;0.63;0.60;;;;;;;22.36;59.10;100082.34;5117469;28;20100;-62
2023/10/03 09:19:10;;;;;;;1.33;1.23;;;;;;;22.44;59.02;100077.66;5117529;28;20043;-65
2023/10/03 09:21:39;;;;;;;2.60;2.00;;;;;;;22.40;58.46;100081.31;5113732;28;20035;-64
2023/10/03 09:24:15;;;;;;;3.20;1.13;;;;;;;22.44;58.56;100072.47;5116381;28;20135;-64
2023/10/03 09:26:51;;;;;;;1.85;0.93;;;;;;;22.53;58.39;100082.47;5117366;28;20050;-63
2023/10/03 09:32:12;;;;;;;1.05;0.93;;;;;;;22.63;57.60;100085.53;5117625;28;20487;-63
2023/10/03 09:34:46;;;;;;;0.70;0.70;;;;;;;22.64;57.71;100080.28;5115208;28;20074;-63
2023/10/03 09:37:17;;;;;;;3.60;0.68;;;;;;;22.75;57.90;100077.19;5115039;28;20043;-63
2023/10/03 09:39:49;;;;;;;0.68;0.68;;;;;;;22.87;57.60;100078.41;5116209;28;20497;-63
2023/10/03 09:42:23;;;;;;;1.20;1.10;;;;;;;22.99;57.76;100072.66;5117053;28;20067;-64
2023/10/03 09:44:57;;;;;;;0.50;0.50;;;;;;;23.04;56.70;100078.50;5115905;28;20111;-62
2023/10/03 09:47:30;;;;;;;0.68;0.68;;;;;;;23.08;56.15;100080.06;5117563;28;20134;-62
2023/10/03 09:50:09;;;;;;;1.10;1.00;;;;;;;23.12;56.26;100077.25;5117202;28;20044;-63
2023/10/03 09:52:39;;;;;;;1.85;0.70;;;;;;;23.27;56.33;100088.75;5116922;28;20092;-64
2023/10/03 09:55:21;;;;;;;1.05;1.00;;;;;;;23.30;55.96;100065.13;5115516;28;20051;-66
2023/10/03 09:57:54;;;;;;;1.05;0.98;;;;;;;23.37;55.86;100079.59;5116751;28;20123;-64
2023/10/03 10:00:38;;;;;;;1.35;1.25;;;;;;;23.53;55.97;100077.13;5117074;28;20403;-63
2023/10/03 10:03:13;;;;;;;1.27;1.05;;;;;;;23.64;55.80;100065.25;5114094;28;20051;-63
2023/10/03 10:05:59;;;;;;;0.80;0.80;;;;;;;23.77;55.34;100070.75;5116718;28;20051;-62
2023/10/03 10:08:36;;;;;;;1.75;1.20;;;;;;;23.93;55.24;100067.31;5116624;28;20056;-64
2023/10/03 10:11:09;;;;;;;2.67;0.82;;;;;;;23.97;54.64;100054.97;5117039;28;20059;-64
2023/10/03 10:13:44;;;;;;;0.63;0.50;;;;;;;23.98;54.13;100060.09;5115532;28;20097;-64
2023/10/03 10:16:20;;;;;;;0.82;0.82;;;;;;;24.07;54.29;100052.78;5114314;28;20126;-62
2023/10/03 10:19:00;;;;;;;1.20;1.10;;;;;;;24.16;54.22;100053.19;5114590;28;20127;-64
2023/10/03 10:21:37;;;;;;;1.65;0.80;;;;;;;24.20;53.81;100048.63;5116173;28;20162;-63
2023/10/03 10:24:28;;;;;;;0.47;0.47;;;;;;;24.15;53.44;100050.63;5116435;28;20046;-64
2023/10/03 10:26:59;;;;;;;0.85;0.85;;;;;;;24.24;53.26;100040.56;5116295;28;20058;-66
2023/10/03 10:29:34;;;;;;;1.77;1.15;;;;;;;24.24;53.00;100035.34;5114363;28;20074;-65
2023/10/03 10:32:18;;;;;;;0.75;0.70;;;;;;;24.34;53.49;100035.72;5116608;28;20047;-69
2023/10/03 10:34:47;;;;;;;0.98;0.70;;;;;;;24.35;53.22;100032.19;5116454;27;20040;-64
2023/10/03 10:37:18;;;;;;;2.42;1.05;;;;;;;24.45;52.76;100033.41;5116260;28;20056;-64
2023/10/03 10:40:17;;;;;;;0.50;0.50;;;;;;;24.49;52.59;100020.13;5113290;28;20056;-64
2023/10/03 10:42:59;;;;;;;0.60;0.60;;;;;;;24.54;52.37;100018.13;5116140;28;20499;-65
2023/10/03 10:45:37;;;;;;;1.15;0.57;;;;;;;24.51;52.06;100017.44;5115762;28;20544;-64
2023/10/03 10:48:08;;;;;;;0.40;0.40;;;;;;;24.60;51.93;100012.56;5113619;28;20044;-66
2023/10/03 10:50:48;;;;;;;;;;;;;;;24.67;51.83;100012.25;5116400;27;20494;-67
2023/10/03 10:53:18;;;;;;;;;;;;;;;24.67;52.03;100013.91;5116299;28;19927;-64
2023/10/03 10:55:47;;;;;;;1.75;0.88;;;;;;;24.65;51.76;100004.47;5111780;28;19919;-64
2023/10/03 10:58:17;;;;;;;0.70;0.70;;;;;;;24.86;51.78;100005.97;5114907;28;20036;-70
2023/10/03 11:00:47;;;;;;;1.02;0.95;;;;;;;24.80;51.78;99995.03;5115875;28;20051;-65
2023/10/03 11:03:21;;;;;;;3.30;1.13;;;;;;;24.90;51.29;99998.84;5115490;28;20043;-64
2023/10/03 11:05:51;;;;;;;0.43;0.43;;;;;;;24.90;51.34;99994.47;5115410;28;20039;-64
2023/10/03 11:08:22;;;;;;;;;;;;;;;24.87;50.83;99992.00;5115323;28;20101;-65
2023/10/03 11:10:53;;;;;;;0.65;0.65;;;;;;;24.92;50.83;99987.38;5115705;28;19919;-64
2023/10/03 11:13:22;;;;;;;0.65;0.65;;;;;;;25.02;50.93;99985.94;5115618;28;20130;-65
2023/10/03 11:15:52;;;;;;;;;;;;;;;25.02;51.01;99983.34;5113641;28;20047;-67
2023/10/03 11:18:29;;;;;;;0.60;0.60;;;;;;;25.05;51.46;99977.91;5114379;28;20010;-72
2023/10/03 11:21:00;;;;;;;0.60;0.60;;;;;;;25.02;50.80;99978.13;5115438;28;20398;-64
2023/10/03 11:23:30;;;;;;;1.00;0.90;;;;;;;25.01;50.51;99971.19;5115691;28;20197;-67
2023/10/03 11:26:01;;;;;;;1.25;1.10;;;;;;;25.02;50.44;99972.03;5110730;28;20384;-67
2023/10/03 11:28:32;;;;;;;10.40;3.72;;;;;;;25.15;51.32;99968.66;5114380;28;20036;-62
2023/10/03 11:31:02;;;;;;;0.60;0.60;;;;;;;25.19;51.23;99964.94;5114295;28;20454;-65
2023/10/03 11:33:42;;;;;;;1.95;1.00;;;;;;;25.34;51.27;99967.63;5109986;27;20131;-64
2023/10/03 11:36:13;;;;;;;1.20;1.10;;;;;;;25.39;50.69;99970.84;5114038;28;20116;-65
2023/10/03 11:38:47;;;;;;;1.40;1.17;;;;;;;25.42;50.52;99966.25;5112806;28;20105;-65
2023/10/03 11:41:30;;;;;;;0.50;0.50;;;;;;;25.56;50.65;99957.66;5111551;28;20118;-67
2023/10/03 11:43:59;;;;;;;0.82;0.77;;;;;;;25.66;50.50;99953.56;5111967;28;20036;-65
2023/10/03 11:46:36;;;;;;;;;;;;;;;25.59;49.89;99949.63;5115092;28;20040;-64
2023/10/03 11:49:06;;;;;;;0.60;0.60;;;;;;;25.65;50.29;99941.44;5114949;28;19972;-64
2023/10/03 11:51:38;;;;;;;0.85;0.85;;;;;;;25.76;50.43;99934.66;5112161;28;20050;-64